sensor_id;sensor_type;location;lat;lon;timestamp;temperature;humidity
14749;DHT22;7466;53.574;9.976;2023-01-15T00:01:44;6.80;99.90
14749;DHT22;7466;53.574;9.976;2023-01-15T00:04:11;6.70;99.90
14749;DHT22;7466;53.574;9.976;2023-01-15T00:06:41;6.70;99.90
14749;DHT22;7466;53.574;9.976;2023-01-15T00:09:12;6.70;99.90
14749;DHT22;7466;53.574;9.976;2023-01-15T00:11:39;6.70;99.90
14749;DHT22;7466;53.574;9.976;2023-01-15T00:14:07;6.70;99.90
14749;DHT22;7466;53.574;9.976;2023-01-15T00:16:33;6.60;99.90
14749;DHT22;7466;53.574;9.976;2023-01-15T00:19:02;6.60;99.90
14749;DHT22;7466;53.574;9.976;2023-01-15T00:21:32;6.60;99.90
14749;DHT22;7466;53.574;9.976;2023-01-15T00:24:00;6.60;99.90
14749;DHT22;7466;53.574;9.976;2023-01-15T00:26:45;6.60;99.90
14749;DHT22;7466;53.574;9.976;2023-01-15T00:29:31;6.60;99.90
14749;DHT22;7466;53.574;9.976;2023-01-15T00:32:00;6.60;99.90
14749;DHT22;7466;53.574;9.976;2023-01-15T00:34:32;6.60;99.90
14749;DHT22;7466;53.574;9.976;2023-01-15T00:36:59;6.50;99.90
14749;DHT22;7466;53.574;9.976;2023-01-15T00:39:26;6.50;99.90
14749;DHT22;7466;53.574;9.976;2023-01-15T00:41:54;6.50;99.90
14749;DHT22;7466;53.574;9.976;2023-01-15T00:44:21;6.60;99.90
14749;DHT22;7466;53.574;9.976;2023-01-15T00:46:48;6.50;99.90
14749;DHT22;7466;53.574;9.976;2023-01-15T00:49:16;6.50;99.90
14749;DHT22;7466;53.574;9.976;2023-01-15T00:51:44;6.50;99.90
14749;DHT22;7466;53.574;9.976;2023-01-15T00:54:13;6.50;99.90
14749;DHT22;7466;53.574;9.976;2023-01-15T00:56:39;6.60;99.90
14749;DHT22;7466;53.574;9.976;2023-01-15T00:59:06;6.50;99.90
14749;DHT22;7466;53.574;9.976;2023-01-15T01:01:33;6.50;99.90
14749;DHT22;7466;53.574;9.976;2023-01-15T01:04:00;6.50;99.90
14749;DHT22;7466;53.574;9.976;2023-01-15T01:06:27;6.50;99.90
14749;DHT22;7466;53.574;9.976;2023-01-15T01:08:56;6.50;99.90
14749;DHT22;7466;53.574;9.976;2023-01-15T01:11:24;6.50;99.90
14749;DHT22;7466;53.574;9.976;2023-01-15T01:13:52;6.50;99.90
14749;DHT22;7466;53.574;9.976;2023-01-15T01:16:30;6.50;99.90
14749;DHT22;7466;53.574;9.976;2023-01-15T01:19:02;6.50;99.90
14749;DHT22;7466;53.574;9.976;2023-01-15T01:21:30;6.50;99.90
14749;DHT22;7466;53.574;9.976;2023-01-15T01:23:59;6.50;99.90
14749;DHT22;7466;53.574;9.976;2023-01-15T01:26:27;6.50;99.90
14749;DHT22;7466;53.574;9.976;2023-01-15T01:28:54;6.50;99.90
14749;DHT22;7466;53.574;9.976;2023-01-15T01:31:22;6.50;99.90
14749;DHT22;7466;53.574;9.976;2023-01-15T01:33:49;6.50;99.90
14749;DHT22;7466;53.574;9.976;2023-01-15T01:36:20;6.50;99.90
14749;DHT22;7466;53.574;9.976;2023-01-15T01:38:47;6.60;99.90
14749;DHT22;7466;53.574;9.976;2023-01-15T01:41:16;6.50;99.90
14749;DHT22;7466;53.574;9.976;2023-01-15T01:43:55;6.60;99.90
14749;DHT22;7466;53.574;9.976;2023-01-15T01:46:23;6.60;99.90
14749;DHT22;7466;53.574;9.976;2023-01-15T01:48:54;6.60;99.90
14749;DHT22;7466;53.574;9.976;2023-01-15T01:51:25;6.60;99.90
14749;DHT22;7466;53.574;9.976;2023-01-15T01:53:52;6.60;99.90
14749;DHT22;7466;53.574;9.976;2023-01-15T01:56:21;6.60;99.90
14749;DHT22;7466;53.574;9.976;2023-01-15T01:58:51;6.60;99.90
14749;DHT22;7466;53.574;9.976;2023-01-15T02:01:20;6.60;99.90
14749;DHT22;7466;53.574;9.976;2023-01-15T02:03:48;6.60;99.90
14749;DHT22;7466;53.574;9.976;2023-01-15T02:06:17;6.60;99.90
14749;DHT22;7466;53.574;9.976;2023-01-15T02:08:44;6.60;99.90
14749;DHT22;7466;53.574;9.976;2023-01-15T02:11:15;6.60;99.90
14749;DHT22;7466;53.574;9.976;2023-01-15T02:13:48;6.60;99.90
14749;DHT22;7466;53.574;9.976;2023-01-15T02:16:21;6.60;99.90
14749;DHT22;7466;53.574;9.976;2023-01-15T02:18:52;6.60;99.90
14749;DHT22;7466;53.574;9.976;2023-01-15T02:21:30;6.60;99.90
14749;DHT22;7466;53.574;9.976;2023-01-15T02:24:09;6.60;99.90
14749;DHT22;7466;53.574;9.976;2023-01-15T02:27:08;6.60;99.90
14749;DHT22;7466;53.574;9.976;2023-01-15T02:29:43;6.60;99.90
14749;DHT22;7466;53.574;9.976;2023-01-15T02:32:14;6.60;99.90
14749;DHT22;7466;53.574;9.976;2023-01-15T02:34:47;6.60;99.90
14749;DHT22;7466;53.574;9.976;2023-01-15T02:37:21;6.60;99.90
14749;DHT22;7466;53.574;9.976;2023-01-15T02:39:50;6.70;99.90
14749;DHT22;7466;53.574;9.976;2023-01-15T02:42:19;6.70;99.90
14749;DHT22;7466;53.574;9.976;2023-01-15T02:44:50;6.70;99.90
14749;DHT22;7466;53.574;9.976;2023-01-15T02:47:21;6.60;99.90
14749;DHT22;7466;53.574;9.976;2023-01-15T02:49:51;6.70;99.90
14749;DHT22;7466;53.574;9.976;2023-01-15T02:52:23;6.70;99.90
14749;DHT22;7466;53.574;9.976;2023-01-15T02:54:55;6.70;99.90
14749;DHT22;7466;53.574;9.976;2023-01-15T02:57:27;6.70;99.90
14749;DHT22;7466;53.574;9.976;2023-01-15T02:59:57;6.70;99.90
14749;DHT22;7466;53.574;9.976;2023-01-15T03:02:29;6.70;99.90
14749;DHT22;7466;53.574;9.976;2023-01-15T03:05:01;6.70;99.90
14749;DHT22;7466;53.574;9.976;2023-01-15T03:07:33;6.70;99.90
14749;DHT22;7466;53.574;9.976;2023-01-15T03:10:03;6.70;99.90
14749;DHT22;7466;53.574;9.976;2023-01-15T03:12:37;6.70;99.90
14749;DHT22;7466;53.574;9.976;2023-01-15T03:15:34;6.70;99.90
14749;DHT22;7466;53.574;9.976;2023-01-15T03:18:22;6.70;99.90
14749;DHT22;7466;53.574;9.976;2023-01-15T03:20:53;6.70;99.90
14749;DHT22;7466;53.574;9.976;2023-01-15T03:23:22;6.70;99.90
14749;DHT22;7466;53.574;9.976;2023-01-15T03:25:50;6.70;99.90
14749;DHT22;7466;53.574;9.976;2023-01-15T03:28:21;6.70;99.90
14749;DHT22;7466;53.574;9.976;2023-01-15T03:30:49;6.70;99.90
14749;DHT22;7466;53.574;9.976;2023-01-15T03:33:17;6.70;99.90
14749;DHT22;7466;53.574;9.976;2023-01-15T03:35:47;6.70;99.90
14749;DHT22;7466;53.574;9.976;2023-01-15T03:38:15;6.70;99.90
14749;DHT22;7466;53.574;9.976;2023-01-15T03:40:49;6.70;99.90
14749;DHT22;7466;53.574;9.976;2023-01-15T03:43:21;6.70;99.90
14749;DHT22;7466;53.574;9.976;2023-01-15T03:46:11;6.70;99.90
14749;DHT22;7466;53.574;9.976;2023-01-15T03:48:43;6.70;99.90
14749;DHT22;7466;53.574;9.976;2023-01-15T03:51:20;6.60;99.90
14749;DHT22;7466;53.574;9.976;2023-01-15T03:53:52;6.60;99.90
14749;DHT22;7466;53.574;9.976;2023-01-15T03:56:26;6.60;99.90
14749;DHT22;7466;53.574;9.976;2023-01-15T03:59:00;6.60;99.90
14749;DHT22;7466;53.574;9.976;2023-01-15T04:01:31;6.60;99.90
14749;DHT22;7466;53.574;9.976;2023-01-15T04:04:00;6.60;99.90
14749;DHT22;7466;53.574;9.976;2023-01-15T04:06:29;6.60;99.90
14749;DHT22;7466;53.574;9.976;2023-01-15T04:09:01;6.60;99.90
14749;DHT22;7466;53.574;9.976;2023-01-15T04:11:29;6.60;99.90
14749;DHT22;7466;53.574;9.976;2023-01-15T04:13:57;6.60;99.90
14749;DHT22;7466;53.574;9.976;2023-01-15T04:16:25;6.60;99.90
14749;DHT22;7466;53.574;9.976;2023-01-15T04:18:53;6.60;99.90
14749;DHT22;7466;53.574;9.976;2023-01-15T04:21:20;6.60;99.90
14749;DHT22;7466;53.574;9.976;2023-01-15T04:23:47;6.60;99.90
14749;DHT22;7466;53.574;9.976;2023-01-15T04:26:15;6.60;99.90
14749;DHT22;7466;53.574;9.976;2023-01-15T04:28:42;6.60;99.90
14749;DHT22;7466;53.574;9.976;2023-01-15T04:31:10;6.60;99.90
14749;DHT22;7466;53.574;9.976;2023-01-15T04:33:37;6.50;99.90
14749;DHT22;7466;53.574;9.976;2023-01-15T04:36:05;6.60;99.90
14749;DHT22;7466;53.574;9.976;2023-01-15T04:38:32;6.60;99.90
14749;DHT22;7466;53.574;9.976;2023-01-15T04:41:00;6.60;99.90
14749;DHT22;7466;53.574;9.976;2023-01-15T04:43:41;6.50;99.90
14749;DHT22;7466;53.574;9.976;2023-01-15T04:46:24;6.60;99.90
14749;DHT22;7466;53.574;9.976;2023-01-15T04:48:51;6.50;99.90
14749;DHT22;7466;53.574;9.976;2023-01-15T04:51:18;6.60;99.90
14749;DHT22;7466;53.574;9.976;2023-01-15T04:53:56;6.50;99.90
14749;DHT22;7466;53.574;9.976;2023-01-15T04:56:25;6.50;99.90
14749;DHT22;7466;53.574;9.976;2023-01-15T04:58:59;6.50;99.90
14749;DHT22;7466;53.574;9.976;2023-01-15T05:01:27;6.50;99.90
14749;DHT22;7466;53.574;9.976;2023-01-15T05:03:54;6.50;99.90
14749;DHT22;7466;53.574;9.976;2023-01-15T05:06:29;6.60;99.90
14749;DHT22;7466;53.574;9.976;2023-01-15T05:08:56;6.60;99.90
14749;DHT22;7466;53.574;9.976;2023-01-15T05:11:23;6.60;99.90
14749;DHT22;7466;53.574;9.976;2023-01-15T05:13:51;6.60;99.90
14749;DHT22;7466;53.574;9.976;2023-01-15T05:16:19;6.60;99.90
14749;DHT22;7466;53.574;9.976;2023-01-15T05:18:50;6.50;99.90
14749;DHT22;7466;53.574;9.976;2023-01-15T05:21:19;6.60;99.90
14749;DHT22;7466;53.574;9.976;2023-01-15T05:23:47;6.60;99.90
14749;DHT22;7466;53.574;9.976;2023-01-15T05:26:14;6.60;99.90
14749;DHT22;7466;53.574;9.976;2023-01-15T05:28:52;6.60;99.90
14749;DHT22;7466;53.574;9.976;2023-01-15T05:31:22;6.60;99.90
14749;DHT22;7466;53.574;9.976;2023-01-15T05:33:52;6.60;99.90
14749;DHT22;7466;53.574;9.976;2023-01-15T05:36:20;6.60;99.90
14749;DHT22;7466;53.574;9.976;2023-01-15T05:38:48;6.60;99.90
14749;DHT22;7466;53.574;9.976;2023-01-15T05:41:25;6.60;99.90
14749;DHT22;7466;53.574;9.976;2023-01-15T05:44:11;6.50;99.90
14749;DHT22;7466;53.574;9.976;2023-01-15T05:46:43;6.60;99.90
14749;DHT22;7466;53.574;9.976;2023-01-15T05:49:14;6.50;99.90
14749;DHT22;7466;53.574;9.976;2023-01-15T05:51:41;6.50;99.90
14749;DHT22;7466;53.574;9.976;2023-01-15T05:54:11;6.50;99.90
14749;DHT22;7466;53.574;9.976;2023-01-15T05:56:42;6.50;99.90
14749;DHT22;7466;53.574;9.976;2023-01-15T05:59:11;6.40;99.90
14749;DHT22;7466;53.574;9.976;2023-01-15T06:01:44;6.50;99.90
14749;DHT22;7466;53.574;9.976;2023-01-15T06:04:15;6.40;99.90
14749;DHT22;7466;53.574;9.976;2023-01-15T06:06:42;6.50;99.90
14749;DHT22;7466;53.574;9.976;2023-01-15T06:09:10;6.50;99.90
14749;DHT22;7466;53.574;9.976;2023-01-15T06:11:37;6.40;99.90
14749;DHT22;7466;53.574;9.976;2023-01-15T06:14:04;6.50;99.90
14749;DHT22;7466;53.574;9.976;2023-01-15T06:16:31;6.50;99.90
14749;DHT22;7466;53.574;9.976;2023-01-15T06:18:59;6.50;99.90
14749;DHT22;7466;53.574;9.976;2023-01-15T06:21:31;6.50;99.90
14749;DHT22;7466;53.574;9.976;2023-01-15T06:23:58;6.60;99.90
14749;DHT22;7466;53.574;9.976;2023-01-15T06:26:26;6.60;99.90
14749;DHT22;7466;53.574;9.976;2023-01-15T06:28:53;6.60;99.90
14749;DHT22;7466;53.574;9.976;2023-01-15T06:31:21;6.60;99.90
14749;DHT22;7466;53.574;9.976;2023-01-15T06:33:49;6.70;99.90
14749;DHT22;7466;53.574;9.976;2023-01-15T06:36:19;6.70;99.90
14749;DHT22;7466;53.574;9.976;2023-01-15T06:38:50;6.60;99.90
14749;DHT22;7466;53.574;9.976;2023-01-15T06:41:19;6.60;99.90
14749;DHT22;7466;53.574;9.976;2023-01-15T06:44:04;6.60;99.90
14749;DHT22;7466;53.574;9.976;2023-01-15T06:46:49;6.60;99.90
14749;DHT22;7466;53.574;9.976;2023-01-15T06:49:35;6.60;99.90
14749;DHT22;7466;53.574;9.976;2023-01-15T06:52:03;6.70;99.90
14749;DHT22;7466;53.574;9.976;2023-01-15T06:54:33;6.70;99.90
14749;DHT22;7466;53.574;9.976;2023-01-15T06:57:00;6.70;99.90
14749;DHT22;7466;53.574;9.976;2023-01-15T06:59:27;6.70;99.90
14749;DHT22;7466;53.574;9.976;2023-01-15T07:01:54;6.70;99.90
14749;DHT22;7466;53.574;9.976;2023-01-15T07:04:21;6.70;99.90
14749;DHT22;7466;53.574;9.976;2023-01-15T07:06:48;6.70;99.90
14749;DHT22;7466;53.574;9.976;2023-01-15T07:09:15;6.70;99.90
14749;DHT22;7466;53.574;9.976;2023-01-15T07:11:43;6.60;99.90
14749;DHT22;7466;53.574;9.976;2023-01-15T07:14:16;6.60;99.90
14749;DHT22;7466;53.574;9.976;2023-01-15T07:16:43;6.70;99.90
14749;DHT22;7466;53.574;9.976;2023-01-15T07:19:10;6.70;99.90
14749;DHT22;7466;53.574;9.976;2023-01-15T07:21:37;6.70;99.90
14749;DHT22;7466;53.574;9.976;2023-01-15T07:24:04;6.60;99.90
14749;DHT22;7466;53.574;9.976;2023-01-15T07:26:31;6.60;99.90
14749;DHT22;7466;53.574;9.976;2023-01-15T07:29:00;6.60;99.90
14749;DHT22;7466;53.574;9.976;2023-01-15T07:31:26;6.60;99.90
14749;DHT22;7466;53.574;9.976;2023-01-15T07:33:54;6.60;99.90
14749;DHT22;7466;53.574;9.976;2023-01-15T07:36:21;6.60;99.90
14749;DHT22;7466;53.574;9.976;2023-01-15T07:38:49;6.60;99.90
14749;DHT22;7466;53.574;9.976;2023-01-15T07:41:17;6.50;99.90
14749;DHT22;7466;53.574;9.976;2023-01-15T07:44:03;6.50;99.90
14749;DHT22;7466;53.574;9.976;2023-01-15T07:46:48;6.50;99.90
14749;DHT22;7466;53.574;9.976;2023-01-15T07:49:32;6.50;99.90
14749;DHT22;7466;53.574;9.976;2023-01-15T07:52:11;6.50;99.90
14749;DHT22;7466;53.574;9.976;2023-01-15T07:54:38;6.50;99.90
14749;DHT22;7466;53.574;9.976;2023-01-15T07:57:07;6.50;99.90
14749;DHT22;7466;53.574;9.976;2023-01-15T07:59:35;6.50;99.90
14749;DHT22;7466;53.574;9.976;2023-01-15T08:02:13;6.50;99.90
14749;DHT22;7466;53.574;9.976;2023-01-15T08:04:40;6.50;99.90
14749;DHT22;7466;53.574;9.976;2023-01-15T08:07:07;6.50;99.90
14749;DHT22;7466;53.574;9.976;2023-01-15T08:09:34;6.40;99.90
14749;DHT22;7466;53.574;9.976;2023-01-15T08:12:02;6.40;99.90
14749;DHT22;7466;53.574;9.976;2023-01-15T08:14:48;6.50;99.90
14749;DHT22;7466;53.574;9.976;2023-01-15T08:17:33;6.50;99.90
14749;DHT22;7466;53.574;9.976;2023-01-15T08:20:00;6.50;99.90
14749;DHT22;7466;53.574;9.976;2023-01-15T08:22:27;6.50;99.90
14749;DHT22;7466;53.574;9.976;2023-01-15T08:24:54;6.50;99.90
14749;DHT22;7466;53.574;9.976;2023-01-15T08:27:21;6.50;99.90
14749;DHT22;7466;53.574;9.976;2023-01-15T08:29:49;6.50;99.90
14749;DHT22;7466;53.574;9.976;2023-01-15T08:32:16;6.50;99.90
14749;DHT22;7466;53.574;9.976;2023-01-15T08:34:43;6.50;99.90
14749;DHT22;7466;53.574;9.976;2023-01-15T08:37:10;6.50;99.90
14749;DHT22;7466;53.574;9.976;2023-01-15T08:39:37;6.50;99.90
14749;DHT22;7466;53.574;9.976;2023-01-15T08:42:04;6.40;99.90
14749;DHT22;7466;53.574;9.976;2023-01-15T08:44:30;6.40;99.90
14749;DHT22;7466;53.574;9.976;2023-01-15T08:46:59;6.40;99.90
14749;DHT22;7466;53.574;9.976;2023-01-15T08:49:25;6.30;99.90
14749;DHT22;7466;53.574;9.976;2023-01-15T09:05:13;6.30;99.90
14749;DHT22;7466;53.574;9.976;2023-01-15T09:07:40;6.30;99.90
14749;DHT22;7466;53.574;9.976;2023-01-15T09:10:08;6.30;99.90
14749;DHT22;7466;53.574;9.976;2023-01-15T09:12:34;6.30;99.90
14749;DHT22;7466;53.574;9.976;2023-01-15T09:15:01;6.20;99.90
14749;DHT22;7466;53.574;9.976;2023-01-15T09:17:31;6.20;99.90
14749;DHT22;7466;53.574;9.976;2023-01-15T09:20:02;6.20;99.90
14749;DHT22;7466;53.574;9.976;2023-01-15T09:22:36;6.20;99.90
14749;DHT22;7466;53.574;9.976;2023-01-15T09:25:10;6.20;99.90
14749;DHT22;7466;53.574;9.976;2023-01-15T09:27:37;6.20;99.90
14749;DHT22;7466;53.574;9.976;2023-01-15T09:30:15;6.20;99.90
14749;DHT22;7466;53.574;9.976;2023-01-15T09:32:44;6.20;99.90
14749;DHT22;7466;53.574;9.976;2023-01-15T09:35:13;6.30;99.90
14749;DHT22;7466;53.574;9.976;2023-01-15T09:37:41;6.30;99.90
14749;DHT22;7466;53.574;9.976;2023-01-15T09:40:21;6.40;99.90
14749;DHT22;7466;53.574;9.976;2023-01-15T09:42:56;6.40;99.90
14749;DHT22;7466;53.574;9.976;2023-01-15T09:45:27;6.50;99.90
14749;DHT22;7466;53.574;9.976;2023-01-15T09:48:05;6.50;99.90
14749;DHT22;7466;53.574;9.976;2023-01-15T09:50:42;6.50;99.90
14749;DHT22;7466;53.574;9.976;2023-01-15T09:56:19;6.60;99.90
14749;DHT22;7466;53.574;9.976;2023-01-15T09:58:53;6.70;99.90
14749;DHT22;7466;53.574;9.976;2023-01-15T10:01:25;6.80;15.90
14749;DHT22;7466;53.574;9.976;2023-01-15T10:03:59;7.00;1.00
14749;DHT22;7466;53.574;9.976;2023-01-15T10:06:29;7.10;1.00
14749;DHT22;7466;53.574;9.976;2023-01-15T10:09:07;7.20;1.00
14749;DHT22;7466;53.574;9.976;2023-01-15T10:11:39;7.20;1.00
14749;DHT22;7466;53.574;9.976;2023-01-15T10:14:36;7.20;1.00
14749;DHT22;7466;53.574;9.976;2023-01-15T10:17:18;7.20;1.00
14749;DHT22;7466;53.574;9.976;2023-01-15T10:19:46;7.20;1.00
14749;DHT22;7466;53.574;9.976;2023-01-15T10:22:26;7.30;1.00
14749;DHT22;7466;53.574;9.976;2023-01-15T10:25:00;7.20;1.00
14749;DHT22;7466;53.574;9.976;2023-01-15T10:27:30;7.10;1.00
14749;DHT22;7466;53.574;9.976;2023-01-15T10:30:03;7.10;1.00
14749;DHT22;7466;53.574;9.976;2023-01-15T10:32:41;7.10;1.00
14749;DHT22;7466;53.574;9.976;2023-01-15T10:35:23;7.20;1.00
14749;DHT22;7466;53.574;9.976;2023-01-15T10:37:58;7.10;1.00
14749;DHT22;7466;53.574;9.976;2023-01-15T10:40:57;7.10;1.00
14749;DHT22;7466;53.574;9.976;2023-01-15T10:43:40;7.00;1.00
14749;DHT22;7466;53.574;9.976;2023-01-15T10:46:11;7.10;1.00
14749;DHT22;7466;53.574;9.976;2023-01-15T10:48:41;7.10;1.00
14749;DHT22;7466;53.574;9.976;2023-01-15T10:51:17;7.10;1.00
14749;DHT22;7466;53.574;9.976;2023-01-15T10:53:46;7.20;1.00
14749;DHT22;7466;53.574;9.976;2023-01-15T10:56:25;7.30;1.00
14749;DHT22;7466;53.574;9.976;2023-01-15T10:58:57;7.30;1.00
14749;DHT22;7466;53.574;9.976;2023-01-15T11:01:36;7.30;1.00
14749;DHT22;7466;53.574;9.976;2023-01-15T11:04:07;7.30;1.00
14749;DHT22;7466;53.574;9.976;2023-01-15T11:06:34;7.30;1.00
14749;DHT22;7466;53.574;9.976;2023-01-15T11:09:01;7.20;1.00
14749;DHT22;7466;53.574;9.976;2023-01-15T11:11:34;7.20;1.00
14749;DHT22;7466;53.574;9.976;2023-01-15T11:14:19;7.10;1.00
14749;DHT22;7466;53.574;9.976;2023-01-15T11:17:12;7.10;1.00
14749;DHT22;7466;53.574;9.976;2023-01-15T11:19:57;7.00;1.00
14749;DHT22;7466;53.574;9.976;2023-01-15T11:22:26;7.10;1.00
14749;DHT22;7466;53.574;9.976;2023-01-15T11:24:57;7.10;1.00
14749;DHT22;7466;53.574;9.976;2023-01-15T11:27:29;7.00;1.00
14749;DHT22;7466;53.574;9.976;2023-01-15T11:29:59;7.00;1.00
14749;DHT22;7466;53.574;9.976;2023-01-15T11:32:29;7.00;1.00
14749;DHT22;7466;53.574;9.976;2023-01-15T11:34:59;6.90;1.00
14749;DHT22;7466;53.574;9.976;2023-01-15T11:37:37;6.80;1.00
14749;DHT22;7466;53.574;9.976;2023-01-15T11:40:17;6.40;43.00
14749;DHT22;7466;53.574;9.976;2023-01-15T11:42:46;6.30;48.60
14749;DHT22;7466;53.574;9.976;2023-01-15T11:45:31;6.20;78.60
14749;DHT22;7466;53.574;9.976;2023-01-15T11:48:17;6.20;34.90
14749;DHT22;7466;53.574;9.976;2023-01-15T11:51:05;6.20;41.10
14749;DHT22;7466;53.574;9.976;2023-01-15T11:53:42;6.10;52.20
14749;DHT22;7466;53.574;9.976;2023-01-15T11:56:12;5.80;96.70
14749;DHT22;7466;53.574;9.976;2023-01-15T11:58:44;5.60;99.90
14749;DHT22;7466;53.574;9.976;2023-01-15T12:01:23;5.40;99.90
14749;DHT22;7466;53.574;9.976;2023-01-15T12:03:52;5.00;99.90
14749;DHT22;7466;53.574;9.976;2023-01-15T12:06:20;4.70;99.90
14749;DHT22;7466;53.574;9.976;2023-01-15T12:08:49;4.50;99.90
14749;DHT22;7466;53.574;9.976;2023-01-15T12:11:34;4.60;99.90
14749;DHT22;7466;53.574;9.976;2023-01-15T12:17:29;4.90;99.90
14749;DHT22;7466;53.574;9.976;2023-01-15T12:20:10;4.80;99.90
14749;DHT22;7466;53.574;9.976;2023-01-15T12:22:52;4.90;92.20
14749;DHT22;7466;53.574;9.976;2023-01-15T12:25:44;4.80;83.50
14749;DHT22;7466;53.574;9.976;2023-01-15T12:28:17;4.90;99.80
14749;DHT22;7466;53.574;9.976;2023-01-15T12:30:57;5.00;99.90
14749;DHT22;7466;53.574;9.976;2023-01-15T12:33:36;4.90;99.90
14749;DHT22;7466;53.574;9.976;2023-01-15T12:36:09;5.00;99.90
14749;DHT22;7466;53.574;9.976;2023-01-15T12:38:49;5.20;99.90
14749;DHT22;7466;53.574;9.976;2023-01-15T12:41:21;5.20;99.90
14749;DHT22;7466;53.574;9.976;2023-01-15T12:43:53;5.30;99.90
14749;DHT22;7466;53.574;9.976;2023-01-15T12:46:45;5.30;99.90
14749;DHT22;7466;53.574;9.976;2023-01-15T12:49:34;5.30;99.90
14749;DHT22;7466;53.574;9.976;2023-01-15T12:52:05;5.40;99.90
14749;DHT22;7466;53.574;9.976;2023-01-15T12:54:41;5.60;99.90
14749;DHT22;7466;53.574;9.976;2023-01-15T12:57:15;5.80;99.90
14749;DHT22;7466;53.574;9.976;2023-01-15T12:59:47;6.00;99.90
14749;DHT22;7466;53.574;9.976;2023-01-15T13:02:27;6.00;99.90
14749;DHT22;7466;53.574;9.976;2023-01-15T13:05:02;6.10;99.90
14749;DHT22;7466;53.574;9.976;2023-01-15T13:07:34;6.20;99.90
14749;DHT22;7466;53.574;9.976;2023-01-15T13:10:05;6.20;97.80
14749;DHT22;7466;53.574;9.976;2023-01-15T13:12:34;6.20;95.80
14749;DHT22;7466;53.574;9.976;2023-01-15T13:15:03;6.20;88.50
14749;DHT22;7466;53.574;9.976;2023-01-15T13:17:38;6.20;86.00
14749;DHT22;7466;53.574;9.976;2023-01-15T13:20:26;6.30;78.50
14749;DHT22;7466;53.574;9.976;2023-01-15T13:23:07;6.30;67.30
14749;DHT22;7466;53.574;9.976;2023-01-15T13:25:45;6.30;58.00
14749;DHT22;7466;53.574;9.976;2023-01-15T13:28:30;6.30;48.20
14749;DHT22;7466;53.574;9.976;2023-01-15T13:31:08;6.30;53.50
14749;DHT22;7466;53.574;9.976;2023-01-15T13:33:41;6.30;51.00
14749;DHT22;7466;53.574;9.976;2023-01-15T13:36:12;6.40;45.60
14749;DHT22;7466;53.574;9.976;2023-01-15T13:38:42;6.40;36.50
14749;DHT22;7466;53.574;9.976;2023-01-15T13:41:16;6.40;30.10
14749;DHT22;7466;53.574;9.976;2023-01-15T13:44:05;6.40;31.60
14749;DHT22;7466;53.574;9.976;2023-01-15T13:46:38;6.50;25.60
14749;DHT22;7466;53.574;9.976;2023-01-15T13:49:16;6.50;18.80
14749;DHT22;7466;53.574;9.976;2023-01-15T13:51:49;6.50;18.10
14749;DHT22;7466;53.574;9.976;2023-01-15T13:54:17;6.60;14.40
14749;DHT22;7466;53.574;9.976;2023-01-15T13:56:49;6.60;9.00
14749;DHT22;7466;53.574;9.976;2023-01-15T13:59:44;6.80;1.00
14749;DHT22;7466;53.574;9.976;2023-01-15T14:02:24;6.90;1.00
14749;DHT22;7466;53.574;9.976;2023-01-15T14:07:30;6.90;10.30
14749;DHT22;7466;53.574;9.976;2023-01-15T14:10:08;6.90;1.00
14749;DHT22;7466;53.574;9.976;2023-01-15T14:13:05;6.90;1.00
14749;DHT22;7466;53.574;9.976;2023-01-15T14:15:41;6.90;1.10
14749;DHT22;7466;53.574;9.976;2023-01-15T14:18:48;6.80;1.00
14749;DHT22;7466;53.574;9.976;2023-01-15T14:21:40;6.80;1.00
14749;DHT22;7466;53.574;9.976;2023-01-15T14:24:27;6.80;1.00
14749;DHT22;7466;53.574;9.976;2023-01-15T14:27:27;6.80;1.00
14749;DHT22;7466;53.574;9.976;2023-01-15T14:30:50;6.90;1.00
14749;DHT22;7466;53.574;9.976;2023-01-15T14:33:48;6.90;1.00
14749;DHT22;7466;53.574;9.976;2023-01-15T14:36:24;7.00;1.00
14749;DHT22;7466;53.574;9.976;2023-01-15T14:38:55;7.00;1.00
14749;DHT22;7466;53.574;9.976;2023-01-15T14:41:32;7.00;1.00
14749;DHT22;7466;53.574;9.976;2023-01-15T14:44:25;7.00;1.00
14749;DHT22;7466;53.574;9.976;2023-01-15T14:47:04;7.00;1.00
14749;DHT22;7466;53.574;9.976;2023-01-15T14:49:43;7.00;1.00
14749;DHT22;7466;53.574;9.976;2023-01-15T14:52:14;7.00;1.00
14749;DHT22;7466;53.574;9.976;2023-01-15T14:54:43;7.00;1.00
14749;DHT22;7466;53.574;9.976;2023-01-15T14:57:13;7.10;1.00
14749;DHT22;7466;53.574;9.976;2023-01-15T14:59:44;7.00;1.00
14749;DHT22;7466;53.574;9.976;2023-01-15T15:05:15;7.10;1.00
14749;DHT22;7466;53.574;9.976;2023-01-15T15:07:51;7.10;1.00
14749;DHT22;7466;53.574;9.976;2023-01-15T15:28:20;6.40;99.90
14749;DHT22;7466;53.574;9.976;2023-01-15T15:30:47;6.50;99.90
14749;DHT22;7466;53.574;9.976;2023-01-15T15:33:17;6.30;99.90
14749;DHT22;7466;53.574;9.976;2023-01-15T15:35:49;6.20;99.90
14749;DHT22;7466;53.574;9.976;2023-01-15T15:38:21;6.10;99.90
14749;DHT22;7466;53.574;9.976;2023-01-15T15:40:53;6.00;99.90
14749;DHT22;7466;53.574;9.976;2023-01-15T15:43:24;5.80;99.90
14749;DHT22;7466;53.574;9.976;2023-01-15T15:46:24;5.60;99.90
14749;DHT22;7466;53.574;9.976;2023-01-15T15:49:09;5.40;99.90
14749;DHT22;7466;53.574;9.976;2023-01-15T15:51:44;5.30;99.90
14749;DHT22;7466;53.574;9.976;2023-01-15T15:54:15;5.30;99.90
14749;DHT22;7466;53.574;9.976;2023-01-15T15:56:59;5.10;99.90
14749;DHT22;7466;53.574;9.976;2023-01-15T15:59:30;5.10;99.90
14749;DHT22;7466;53.574;9.976;2023-01-15T16:02:06;5.10;99.90
14749;DHT22;7466;53.574;9.976;2023-01-15T16:04:34;5.20;99.90
14749;DHT22;7466;53.574;9.976;2023-01-15T16:07:11;5.20;99.90
14749;DHT22;7466;53.574;9.976;2023-01-15T16:09:38;5.20;99.90
14749;DHT22;7466;53.574;9.976;2023-01-15T16:12:11;5.20;99.90
14749;DHT22;7466;53.574;9.976;2023-01-15T16:14:39;5.10;99.90
14749;DHT22;7466;53.574;9.976;2023-01-15T16:17:08;5.10;99.90
14749;DHT22;7466;53.574;9.976;2023-01-15T16:19:36;5.10;99.90
14749;DHT22;7466;53.574;9.976;2023-01-15T16:22:04;5.10;99.90
14749;DHT22;7466;53.574;9.976;2023-01-15T16:24:35;5.00;99.90
14749;DHT22;7466;53.574;9.976;2023-01-15T16:27:03;5.00;99.90
14749;DHT22;7466;53.574;9.976;2023-01-15T16:29:33;5.00;99.90
14749;DHT22;7466;53.574;9.976;2023-01-15T16:32:09;5.00;99.90
14749;DHT22;7466;53.574;9.976;2023-01-15T16:34:36;5.00;99.90
14749;DHT22;7466;53.574;9.976;2023-01-15T16:37:10;5.00;99.90
14749;DHT22;7466;53.574;9.976;2023-01-15T16:39:44;5.00;99.90
14749;DHT22;7466;53.574;9.976;2023-01-15T16:42:26;4.90;99.90
14749;DHT22;7466;53.574;9.976;2023-01-15T16:44:59;4.90;99.90
14749;DHT22;7466;53.574;9.976;2023-01-15T16:47:28;4.90;99.90
14749;DHT22;7466;53.574;9.976;2023-01-15T16:50:26;4.90;99.90
14749;DHT22;7466;53.574;9.976;2023-01-15T16:52:55;5.00;99.90
14749;DHT22;7466;53.574;9.976;2023-01-15T16:55:42;4.90;99.90
14749;DHT22;7466;53.574;9.976;2023-01-15T16:58:20;4.90;99.90
14749;DHT22;7466;53.574;9.976;2023-01-15T17:00:51;4.90;99.90
14749;DHT22;7466;53.574;9.976;2023-01-15T17:03:21;4.80;99.90
14749;DHT22;7466;53.574;9.976;2023-01-15T17:05:50;4.80;99.90
14749;DHT22;7466;53.574;9.976;2023-01-15T17:08:19;4.80;99.90
14749;DHT22;7466;53.574;9.976;2023-01-15T17:10:55;4.90;99.90
14749;DHT22;7466;53.574;9.976;2023-01-15T17:13:29;4.90;99.90
14749;DHT22;7466;53.574;9.976;2023-01-15T17:16:07;4.90;99.90
14749;DHT22;7466;53.574;9.976;2023-01-15T17:18:40;4.90;99.90
14749;DHT22;7466;53.574;9.976;2023-01-15T17:21:13;4.90;99.90
14749;DHT22;7466;53.574;9.976;2023-01-15T17:23:42;4.90;99.90
14749;DHT22;7466;53.574;9.976;2023-01-15T17:26:13;5.00;99.90